createdAt,value
2023-04-16T00:02:03.890Z,7.25
2023-04-16T00:04:31.259Z,7.25
2023-04-16T00:06:58.142Z,7.24
2023-04-16T00:09:25.066Z,7.24
2023-04-16T00:11:53.246Z,7.24
2023-04-16T00:14:20.331Z,7.28
2023-04-16T00:16:47.242Z,7.30
2023-04-16T00:19:14.256Z,7.33
2023-04-16T00:21:41.283Z,7.37
2023-04-16T00:24:08.385Z,7.40
2023-04-16T00:26:35.257Z,7.41
2023-04-16T00:29:02.499Z,7.46
2023-04-16T00:31:31.851Z,7.47
2023-04-16T00:33:59.286Z,7.49
2023-04-16T00:36:28.089Z,7.50
2023-04-16T00:38:56.454Z,7.53
2023-04-16T00:41:23.753Z,7.55
2023-04-16T00:43:51.817Z,7.56
2023-04-16T00:46:23.430Z,7.57
2023-04-16T00:48:52.276Z,7.59
2023-04-16T00:51:21.449Z,7.60
2023-04-16T00:53:50.474Z,7.60
2023-04-16T00:56:18.118Z,7.60
2023-04-16T00:58:45.230Z,7.62
2023-04-16T01:01:14.404Z,7.64
2023-04-16T01:03:45.913Z,7.65
2023-04-16T01:06:13.645Z,7.65
2023-04-16T01:08:40.817Z,7.65
2023-04-16T01:11:08.033Z,7.65
2023-04-16T01:13:39.362Z,7.64
2023-04-16T01:16:08.272Z,7.64
2023-04-16T01:18:35.823Z,7.61
2023-04-16T01:21:03.997Z,7.60
2023-04-16T01:23:31.368Z,7.59
2023-04-16T01:25:58.313Z,7.57
2023-04-16T01:28:25.421Z,7.56
2023-04-16T01:30:52.410Z,7.55
2023-04-16T01:33:35.891Z,7.52
2023-04-16T01:36:03.006Z,7.50
2023-04-16T01:38:29.933Z,7.46
2023-04-16T01:41:00.005Z,7.46
2023-04-16T01:43:26.952Z,7.43
2023-04-16T01:46:11.567Z,7.44
2023-04-16T01:48:38.608Z,7.44
2023-04-16T01:51:05.832Z,7.45
2023-04-16T01:53:32.736Z,7.43
2023-04-16T01:55:59.800Z,7.40
2023-04-16T01:58:29.747Z,7.39
2023-04-16T02:00:56.897Z,7.35
2023-04-16T02:03:25.011Z,7.33
2023-04-16T02:05:53.077Z,7.31
2023-04-16T02:08:20.001Z,7.25
2023-04-16T02:10:47.913Z,7.23
2023-04-16T02:13:15.887Z,7.19
2023-04-16T02:15:49.996Z,7.14
2023-04-16T02:18:22.749Z,7.11
2023-04-16T02:20:50.010Z,7.07
2023-04-16T02:23:17.829Z,7.01
2023-04-16T02:25:47.343Z,6.96
2023-04-16T02:28:17.055Z,6.90
2023-04-16T02:30:46.088Z,6.83
2023-04-16T02:33:15.367Z,6.78
2023-04-16T02:35:53.267Z,6.69
2023-04-16T02:38:20.406Z,6.60
2023-04-16T02:40:47.254Z,6.55
2023-04-16T02:43:15.626Z,6.50
2023-04-16T02:45:42.613Z,6.43
2023-04-16T02:48:10.068Z,6.37
2023-04-16T02:50:37.019Z,6.31
2023-04-16T02:53:04.411Z,6.29
2023-04-16T02:55:31.273Z,6.28
2023-04-16T02:57:58.177Z,6.26
2023-04-16T03:00:25.073Z,6.24
2023-04-16T03:02:52.055Z,6.27
2023-04-16T03:05:19.200Z,6.28
2023-04-16T03:07:46.871Z,6.30
2023-04-16T03:10:14.967Z,6.30
2023-04-16T03:12:41.931Z,6.30
2023-04-16T03:15:09.283Z,6.33
2023-04-16T03:17:36.366Z,6.37
2023-04-16T03:20:04.246Z,6.41
2023-04-16T03:22:31.788Z,6.43
2023-04-16T03:24:58.660Z,6.40
2023-04-16T03:27:25.691Z,6.37
2023-04-16T03:29:52.988Z,6.34
2023-04-16T03:32:19.930Z,6.28
2023-04-16T03:34:46.909Z,6.21
2023-04-16T03:37:13.832Z,6.13
2023-04-16T03:39:40.957Z,6.11
2023-04-16T03:42:09.249Z,6.09
2023-04-16T03:44:36.295Z,6.11
2023-04-16T03:47:03.245Z,6.13
2023-04-16T03:49:30.292Z,6.17
2023-04-16T03:51:58.224Z,6.17
2023-04-16T03:54:26.168Z,6.22
2023-04-16T03:57:03.410Z,6.26
2023-04-16T03:59:30.495Z,6.29
2023-04-16T04:01:57.558Z,6.34
2023-04-16T04:04:24.628Z,6.38
2023-04-16T04:06:51.543Z,6.45
2023-04-16T04:09:18.508Z,6.54
2023-04-16T04:11:45.634Z,6.63
2023-04-16T04:14:12.559Z,6.71
2023-04-16T04:16:39.472Z,6.81
2023-04-16T04:19:06.466Z,6.89
2023-04-16T04:21:33.358Z,6.95
2023-04-16T04:24:00.257Z,6.97
2023-04-16T04:26:29.558Z,7.01
2023-04-16T04:28:57.067Z,7.01
2023-04-16T04:31:24.042Z,7.03
2023-04-16T04:33:51.114Z,7.10
2023-04-16T04:36:18.129Z,7.12
2023-04-16T04:38:45.098Z,7.18
2023-04-16T04:41:11.965Z,7.25
2023-04-16T04:43:39.311Z,7.37
2023-04-16T04:46:06.637Z,7.43
2023-04-16T04:48:33.605Z,7.56
2023-04-16T04:51:01.237Z,7.68
2023-04-16T04:53:29.175Z,7.84
2023-04-16T04:55:58.675Z,7.96
2023-04-16T04:58:33.047Z,8.11
2023-04-16T05:00:59.986Z,8.23
2023-04-16T05:03:27.008Z,8.38
2023-04-16T05:05:53.983Z,8.56
2023-04-16T05:08:21.180Z,8.73
2023-04-16T05:10:48.239Z,8.90
2023-04-16T05:13:15.209Z,9.05
2023-04-16T05:15:42.027Z,9.20
2023-04-16T05:18:08.916Z,9.26
2023-04-16T05:20:37.924Z,9.33
2023-04-16T05:23:04.844Z,9.45
2023-04-16T05:25:31.786Z,9.53
2023-04-16T05:27:58.740Z,9.67
2023-04-16T05:30:25.611Z,9.77
2023-04-16T05:32:52.475Z,9.88
2023-04-16T05:35:19.445Z,9.90
2023-04-16T05:37:46.356Z,9.91
2023-04-16T05:40:14.444Z,9.94
2023-04-16T05:42:41.544Z,9.99
2023-04-16T05:45:08.939Z,10.03
2023-04-16T05:47:35.917Z,10.09
2023-04-16T05:50:02.967Z,10.21
2023-04-16T05:52:29.760Z,10.27
2023-04-16T05:54:56.650Z,10.45
2023-04-16T05:57:23.535Z,10.56
2023-04-16T05:59:50.464Z,10.67
2023-04-16T06:02:17.425Z,10.82
2023-04-16T06:04:44.390Z,10.92
2023-04-16T06:07:11.200Z,11.05
2023-04-16T06:09:38.200Z,11.23
2023-04-16T06:12:05.558Z,11.43
2023-04-16T06:14:32.495Z,11.70
2023-04-16T06:16:59.394Z,12.08
2023-04-16T06:19:26.310Z,12.55
2023-04-16T06:21:53.527Z,13.26
2023-04-16T06:24:20.789Z,14.04
2023-04-16T06:26:47.601Z,14.75
2023-04-16T06:29:14.472Z,15.22
2023-04-16T06:31:41.721Z,15.57
2023-04-16T06:34:09.356Z,15.57
2023-04-16T06:36:37.670Z,15.44
2023-04-16T06:39:05.059Z,15.40
2023-04-16T06:41:32.116Z,15.34
2023-04-16T06:43:59.004Z,15.23
2023-04-16T06:46:26.082Z,15.22
2023-04-16T06:48:52.906Z,15.23
2023-04-16T06:51:19.894Z,15.22
2023-04-16T06:53:46.738Z,15.24
2023-04-16T06:56:13.569Z,15.24
2023-04-16T06:58:40.511Z,15.34
2023-04-16T07:01:07.530Z,15.69
2023-04-16T07:03:34.729Z,16.12
2023-04-16T07:06:01.820Z,16.44
2023-04-16T07:08:28.708Z,16.75
2023-04-16T07:10:55.714Z,16.90
2023-04-16T07:13:22.566Z,17.03
2023-04-16T07:15:49.434Z,16.92
2023-04-16T07:18:16.868Z,17.04
2023-04-16T07:20:43.780Z,17.02
2023-04-16T07:23:10.815Z,17.00
2023-04-16T07:25:37.748Z,17.08
2023-04-16T07:28:04.712Z,17.05
2023-04-16T07:30:34.351Z,17.11
2023-04-16T07:33:02.964Z,17.22
2023-04-16T07:35:30.881Z,17.21
2023-04-16T07:37:57.742Z,17.26
2023-04-16T07:40:24.733Z,17.35
2023-04-16T07:42:51.749Z,17.38
2023-04-16T07:45:19.352Z,17.41
2023-04-16T07:47:46.294Z,17.47
2023-04-16T07:50:13.516Z,17.49
2023-04-16T07:52:42.467Z,17.67
2023-04-16T07:55:09.636Z,17.80
2023-04-16T07:57:36.794Z,18.04
2023-04-16T08:00:07.108Z,18.18
2023-04-16T08:02:44.596Z,18.43
2023-04-16T08:05:12.625Z,18.74
2023-04-16T08:07:39.497Z,19.02
2023-04-16T08:10:07.054Z,19.14
2023-04-16T08:12:35.931Z,19.18
2023-04-16T08:15:02.910Z,19.00
2023-04-16T08:17:30.147Z,18.67
2023-04-16T08:19:57.229Z,18.54
2023-04-16T08:22:24.144Z,18.47
2023-04-16T08:24:51.048Z,18.50
2023-04-16T08:27:19.913Z,18.66
2023-04-16T08:29:48.019Z,18.83
2023-04-16T08:32:14.921Z,18.83
2023-04-16T08:34:42.223Z,18.93
2023-04-16T08:37:09.491Z,18.92
2023-04-16T08:39:36.719Z,19.16
2023-04-16T08:42:11.274Z,19.44
2023-04-16T08:44:49.071Z,19.97
2023-04-16T08:47:16.538Z,20.46
2023-04-16T08:49:46.323Z,20.85
2023-04-16T08:52:20.419Z,21.13
2023-04-16T08:54:57.415Z,21.37
2023-04-16T08:57:30.142Z,21.62
2023-04-16T08:59:58.529Z,21.91
2023-04-16T09:02:27.018Z,21.90
2023-04-16T09:04:55.009Z,21.77
2023-04-16T09:07:22.423Z,21.79
2023-04-16T09:09:51.796Z,21.75
2023-04-16T09:12:19.308Z,21.84
2023-04-16T09:14:50.523Z,21.93
2023-04-16T09:17:18.814Z,21.98
2023-04-16T09:19:46.499Z,22.26
2023-04-16T09:22:13.535Z,22.29
2023-04-16T09:24:41.962Z,22.07
2023-04-16T09:27:09.190Z,21.84
2023-04-16T09:29:39.025Z,21.51
2023-04-16T09:32:12.461Z,21.19
2023-04-16T09:35:02.633Z,21.02
2023-04-16T09:37:30.876Z,20.92
2023-04-16T09:40:03.572Z,20.83
2023-04-16T09:42:32.348Z,21.13
2023-04-16T09:45:01.975Z,21.35
2023-04-16T09:47:44.698Z,21.43
2023-04-16T09:50:18.235Z,21.67
2023-04-16T09:52:51.326Z,21.90
2023-04-16T09:55:23.797Z,22.21
2023-04-16T09:57:59.959Z,21.93
2023-04-16T10:00:28.793Z,22.19
2023-04-16T10:03:07.939Z,22.33
2023-04-16T10:05:35.176Z,22.23
2023-04-16T10:08:02.328Z,21.98
2023-04-16T10:10:29.858Z,22.04
2023-04-16T10:12:58.062Z,21.95
2023-04-16T10:15:25.760Z,21.95
2023-04-16T10:17:54.267Z,22.01
2023-04-16T10:20:22.722Z,21.88
2023-04-16T10:22:50.023Z,21.75
2023-04-16T10:25:18.448Z,21.62
2023-04-16T10:27:46.020Z,21.44
2023-04-16T10:30:15.673Z,21.33
2023-04-16T10:32:43.214Z,20.90
2023-04-16T10:35:14.926Z,20.36
2023-04-16T10:37:43.272Z,20.15
2023-04-16T10:40:30.436Z,19.90
2023-04-16T10:42:58.618Z,19.07
2023-04-16T10:45:38.327Z,18.72
2023-04-16T10:48:10.025Z,18.52
2023-04-16T10:50:37.731Z,18.10
2023-04-16T10:53:21.267Z,17.81
2023-04-16T10:55:58.973Z,17.72
2023-04-16T10:58:29.959Z,17.56
2023-04-16T11:01:00.644Z,17.51
2023-04-16T11:03:32.301Z,17.53
2023-04-16T11:06:24.337Z,17.41
2023-04-16T11:08:55.057Z,17.34
2023-04-16T11:11:22.539Z,17.01
2023-04-16T11:13:49.664Z,16.93
2023-04-16T11:16:17.323Z,16.61
2023-04-16T11:18:51.083Z,16.42
2023-04-16T11:21:19.485Z,16.15
2023-04-16T11:23:50.922Z,16.08
2023-04-16T11:26:29.277Z,16.08
2023-04-16T11:28:57.152Z,15.88
2023-04-16T11:31:24.893Z,15.83
2023-04-16T11:33:51.929Z,15.75
2023-04-16T11:36:19.016Z,15.72
2023-04-16T11:38:47.000Z,15.67
2023-04-16T11:41:19.926Z,15.68
2023-04-16T11:43:46.810Z,15.63
2023-04-16T11:46:24.575Z,15.73
2023-04-16T11:48:55.648Z,15.72
2023-04-16T11:51:23.715Z,15.91
2023-04-16T11:53:55.016Z,16.04
2023-04-16T11:56:29.585Z,16.13
2023-04-16T11:59:12.691Z,16.40
2023-04-16T12:01:41.604Z,16.62
2023-04-16T12:04:09.453Z,16.90
2023-04-16T12:06:36.749Z,17.18
2023-04-16T12:09:23.926Z,17.49
2023-04-16T12:11:50.895Z,17.73
2023-04-16T12:14:17.862Z,17.94
2023-04-16T12:16:44.954Z,18.12
2023-04-16T12:19:13.423Z,18.29
2023-04-16T12:21:41.698Z,18.24
2023-04-16T12:24:10.955Z,18.37
2023-04-16T12:26:48.931Z,17.92
2023-04-16T12:29:23.320Z,17.68
2023-04-16T12:31:51.609Z,17.66
2023-04-16T12:34:20.007Z,17.36
2023-04-16T12:36:48.611Z,17.25
2023-04-16T12:39:16.576Z,17.34
2023-04-16T12:41:44.939Z,17.44
2023-04-16T12:44:18.010Z,17.62
2023-04-16T12:46:44.964Z,17.98
2023-04-16T12:49:12.204Z,18.35
2023-04-16T12:51:39.329Z,18.65
2023-04-16T12:54:09.897Z,19.01
2023-04-16T12:56:36.868Z,19.37
2023-04-16T12:59:03.947Z,19.72
2023-04-16T13:01:31.041Z,20.06
2023-04-16T13:03:58.185Z,20.36
2023-04-16T13:06:26.339Z,20.65
2023-04-16T13:08:53.187Z,20.92
2023-04-16T13:11:20.560Z,20.83
2023-04-16T13:13:47.469Z,20.70
2023-04-16T13:16:14.475Z,20.47
2023-04-16T13:18:41.614Z,20.19
2023-04-16T13:21:08.648Z,19.97
2023-04-16T13:23:35.823Z,19.75
2023-04-16T13:26:02.774Z,19.70
2023-04-16T13:28:29.642Z,19.69
2023-04-16T13:30:56.627Z,19.82
2023-04-16T13:33:23.895Z,20.07
2023-04-16T13:35:50.968Z,20.32
2023-04-16T13:38:18.227Z,20.59
2023-04-16T13:40:45.217Z,20.85
2023-04-16T13:43:13.760Z,21.04
2023-04-16T13:45:40.964Z,21.34
2023-04-16T13:48:07.908Z,21.57
2023-04-16T13:50:35.652Z,21.60
2023-04-16T13:53:02.496Z,21.49
2023-04-16T13:55:31.965Z,21.27
2023-04-16T13:57:58.958Z,21.09
2023-04-16T14:00:27.386Z,20.79
2023-04-16T14:02:54.450Z,20.35
2023-04-16T14:05:24.123Z,20.32
2023-04-16T14:07:52.752Z,20.11
2023-04-16T14:10:19.830Z,19.89
2023-04-16T14:12:46.795Z,19.69
2023-04-16T14:15:14.761Z,19.22
2023-04-16T14:17:44.669Z,18.80
2023-04-16T14:20:13.796Z,18.53
2023-04-16T14:22:42.544Z,18.10
2023-04-16T14:25:09.710Z,17.93
2023-04-16T14:27:36.666Z,17.80
2023-04-16T14:30:04.700Z,17.72
2023-04-16T14:32:31.641Z,17.70
2023-04-16T14:34:58.633Z,17.74
2023-04-16T14:37:26.326Z,17.68
2023-04-16T14:39:54.135Z,17.76
2023-04-16T14:42:21.067Z,17.54
2023-04-16T14:44:48.216Z,17.39
2023-04-16T14:47:15.145Z,17.32
2023-04-16T14:49:41.994Z,17.29
2023-04-16T14:52:08.933Z,17.02
2023-04-16T14:54:36.286Z,17.10
2023-04-16T14:57:03.558Z,17.15
2023-04-16T14:59:31.140Z,17.09
2023-04-16T15:02:00.447Z,17.05
2023-04-16T15:04:27.814Z,17.03
2023-04-16T15:06:58.854Z,17.10
2023-04-16T15:09:28.447Z,17.17
2023-04-16T15:11:55.433Z,17.31
2023-04-16T15:14:22.431Z,17.43
2023-04-16T15:16:49.776Z,17.55
2023-04-16T15:19:16.711Z,17.64
2023-04-16T15:21:44.847Z,17.66
2023-04-16T15:24:13.120Z,17.72
2023-04-16T15:26:41.383Z,17.70
2023-04-16T15:29:08.272Z,17.65
2023-04-16T15:31:35.147Z,17.61
2023-04-16T15:34:02.146Z,17.56
2023-04-16T15:36:29.011Z,17.48
2023-04-16T15:38:55.968Z,17.37
2023-04-16T15:41:23.214Z,17.24
2023-04-16T15:43:50.451Z,17.09
2023-04-16T15:46:17.390Z,16.96
2023-04-16T15:48:44.493Z,16.86
2023-04-16T15:51:11.958Z,16.77
2023-04-16T15:53:39.069Z,16.67
2023-04-16T15:56:06.250Z,16.59
2023-04-16T15:58:33.176Z,16.48
2023-04-16T16:01:00.026Z,16.41
2023-04-16T16:03:27.493Z,16.34
2023-04-16T16:05:54.454Z,16.19
2023-04-16T16:08:21.441Z,16.08
2023-04-16T16:10:48.792Z,16.10
2023-04-16T16:13:18.252Z,16.06
2023-04-16T16:15:45.497Z,15.97
2023-04-16T16:18:12.369Z,15.91
2023-04-16T16:20:40.563Z,15.85
2023-04-16T16:23:07.821Z,15.77
2023-04-16T16:25:34.989Z,15.74
2023-04-16T16:28:04.261Z,15.68
2023-04-16T16:30:32.740Z,15.65
2023-04-16T16:32:59.724Z,15.58
2023-04-16T16:35:26.805Z,15.55
2023-04-16T16:37:57.378Z,15.47
2023-04-16T16:40:24.500Z,15.38
2023-04-16T16:42:51.483Z,15.32
2023-04-16T16:45:18.617Z,15.24
2023-04-16T16:47:45.547Z,15.16
2023-04-16T16:50:12.714Z,15.11
2023-04-16T16:52:39.581Z,15.08
2023-04-16T16:55:10.911Z,15.02
2023-04-16T16:57:39.046Z,14.96
2023-04-16T17:00:16.319Z,14.89
2023-04-16T17:02:43.731Z,14.82
2023-04-16T17:05:11.106Z,14.75
2023-04-16T17:07:38.531Z,14.69
2023-04-16T17:10:06.996Z,14.64
2023-04-16T17:12:34.039Z,14.55
2023-04-16T17:15:01.617Z,14.44
2023-04-16T17:17:29.252Z,14.33
2023-04-16T17:19:56.205Z,14.22
2023-04-16T17:22:23.096Z,14.11
2023-04-16T17:24:49.929Z,14.00
2023-04-16T17:27:16.813Z,13.91
2023-04-16T17:29:45.405Z,13.83
2023-04-16T17:32:12.388Z,13.76
2023-04-16T17:34:39.245Z,13.71
2023-04-16T17:37:06.130Z,13.67
2023-04-16T17:39:33.100Z,13.61
2023-04-16T17:42:01.341Z,13.54
2023-04-16T17:44:28.282Z,13.48
2023-04-16T17:46:55.279Z,13.43
2023-04-16T17:49:22.163Z,13.38
2023-04-16T17:51:49.275Z,13.37
2023-04-16T17:54:16.227Z,13.36
2023-04-16T17:56:43.281Z,13.35
2023-04-16T17:59:10.703Z,13.31
2023-04-16T18:01:37.812Z,13.29
2023-04-16T18:04:05.053Z,13.27
2023-04-16T18:06:32.375Z,13.27
2023-04-16T18:08:59.278Z,13.25
2023-04-16T18:11:28.013Z,13.24
2023-04-16T18:13:55.968Z,13.21
2023-04-16T18:16:23.035Z,13.17
2023-04-16T18:18:50.000Z,13.12
2023-04-16T18:21:16.881Z,13.10
2023-04-16T18:23:43.755Z,13.09
2023-04-16T18:26:11.268Z,13.05
2023-04-16T18:28:39.289Z,13.04
2023-04-16T18:31:07.813Z,13.00
2023-04-16T18:33:54.074Z,12.97
2023-04-16T18:36:21.757Z,12.93
2023-04-16T18:38:59.995Z,12.89
2023-04-16T18:41:28.438Z,12.87
2023-04-16T18:43:55.456Z,12.85
2023-04-16T18:46:22.388Z,12.84
2023-04-16T18:48:49.370Z,12.82
2023-04-16T18:51:16.827Z,12.82
2023-04-16T18:53:45.705Z,12.81
2023-04-16T18:56:13.032Z,12.77
2023-04-16T18:58:40.089Z,12.75
2023-04-16T19:01:11.312Z,12.74
2023-04-16T19:03:38.858Z,12.74
2023-04-16T19:06:06.630Z,12.73
2023-04-16T19:08:33.605Z,12.72
2023-04-16T19:11:01.584Z,12.67
2023-04-16T19:13:30.395Z,12.64
2023-04-16T19:16:01.845Z,12.62
2023-04-16T19:18:28.824Z,12.61
2023-04-16T19:21:01.096Z,12.58
2023-04-16T19:23:29.436Z,12.50
2023-04-16T19:25:57.084Z,12.45
2023-04-16T19:28:26.558Z,12.42
2023-04-16T19:30:54.123Z,12.40
2023-04-16T19:33:21.248Z,12.35
2023-04-16T19:35:48.245Z,12.32
2023-04-16T19:38:15.675Z,12.28
2023-04-16T19:40:46.864Z,12.23
2023-04-16T19:43:15.141Z,12.22
2023-04-16T19:45:46.933Z,12.22
2023-04-16T19:48:15.838Z,12.20
2023-04-16T19:50:43.135Z,12.21
2023-04-16T19:53:10.835Z,12.23
2023-04-16T19:55:41.372Z,12.27
2023-04-16T19:58:08.967Z,12.30
2023-04-16T20:00:41.839Z,12.32
2023-04-16T20:03:09.375Z,12.32
2023-04-16T20:05:37.023Z,12.34
2023-04-16T20:08:04.025Z,12.36
2023-04-16T20:10:31.605Z,12.36
2023-04-16T20:12:58.704Z,12.36
2023-04-16T20:15:25.872Z,12.34
2023-04-16T20:17:53.433Z,12.28
2023-04-16T20:20:23.674Z,12.20
2023-04-16T20:22:51.325Z,12.19
2023-04-16T20:25:22.643Z,12.13
2023-04-16T20:27:49.586Z,12.11
2023-04-16T20:30:16.450Z,12.10
2023-04-16T20:32:43.412Z,12.11
2023-04-16T20:35:11.640Z,12.10
2023-04-16T20:37:39.250Z,12.11
2023-04-16T20:40:08.859Z,12.13
2023-04-16T20:42:35.869Z,12.11
2023-04-16T20:45:02.815Z,12.11
2023-04-16T20:47:31.071Z,12.12
2023-04-16T20:49:58.309Z,12.13
2023-04-16T20:52:25.479Z,12.13
2023-04-16T20:54:53.570Z,12.14
2023-04-16T20:57:21.730Z,12.12
2023-04-16T20:59:50.728Z,12.11
2023-04-16T21:02:17.838Z,12.12
2023-04-16T21:04:45.221Z,12.12
2023-04-16T21:07:12.292Z,12.13
2023-04-16T21:09:39.314Z,12.14
2023-04-16T21:12:07.238Z,12.18
2023-04-16T21:14:34.225Z,12.20
2023-04-16T21:17:01.207Z,12.25
2023-04-16T21:19:28.129Z,12.29
2023-04-16T21:21:56.478Z,12.31
2023-04-16T21:24:23.436Z,12.32
2023-04-16T21:26:50.530Z,12.32
2023-04-16T21:29:18.779Z,12.32
2023-04-16T21:31:46.038Z,12.30
2023-04-16T21:34:12.918Z,12.29
2023-04-16T21:36:39.964Z,12.29
2023-04-16T21:39:06.905Z,12.32
2023-04-16T21:41:33.986Z,12.32
2023-04-16T21:44:01.181Z,12.30
2023-04-16T21:46:28.266Z,12.25
2023-04-16T21:48:55.106Z,12.20
2023-04-16T21:51:29.214Z,12.19
2023-04-16T21:53:57.054Z,12.16
2023-04-16T21:56:25.080Z,12.16
2023-04-16T21:58:51.995Z,12.15
2023-04-16T22:01:18.985Z,12.15
2023-04-16T22:03:50.549Z,12.15
2023-04-16T22:06:18.014Z,12.14
2023-04-16T22:08:44.883Z,12.16
2023-04-16T22:11:12.169Z,12.16
2023-04-16T22:13:42.135Z,12.13
2023-04-16T22:16:11.586Z,12.13
2023-04-16T22:18:38.889Z,12.15
2023-04-16T22:21:05.838Z,12.15
2023-04-16T22:23:32.850Z,12.18
2023-04-16T22:25:59.714Z,12.20
2023-04-16T22:28:27.285Z,12.21
2023-04-16T22:30:54.176Z,12.23
2023-04-16T22:33:21.317Z,12.22
2023-04-16T22:35:48.330Z,12.20
2023-04-16T22:38:16.535Z,12.18
2023-04-16T22:40:43.466Z,12.18
2023-04-16T22:43:10.472Z,12.16
2023-04-16T22:45:37.624Z,12.17
2023-04-16T22:48:04.696Z,12.18
2023-04-16T22:50:33.082Z,12.19
2023-04-16T22:53:00.200Z,12.20
2023-04-16T22:55:27.237Z,12.18
2023-04-16T22:57:54.034Z,12.17
2023-04-16T23:00:21.248Z,12.16
2023-04-16T23:02:48.231Z,12.13
2023-04-16T23:05:15.168Z,12.13
2023-04-16T23:07:42.035Z,12.11
2023-04-16T23:10:09.160Z,12.10
2023-04-16T23:12:38.905Z,12.08
2023-04-16T23:15:07.650Z,12.11
2023-04-16T23:17:35.168Z,12.10
2023-04-16T23:20:02.494Z,12.13
2023-04-16T23:22:31.018Z,12.14
2023-04-16T23:24:57.849Z,12.16
2023-04-16T23:27:24.726Z,12.17
2023-04-16T23:29:51.637Z,12.18
2023-04-16T23:32:18.555Z,12.18
2023-04-16T23:34:45.753Z,12.19
2023-04-16T23:37:12.703Z,12.19
2023-04-16T23:39:39.641Z,12.18
2023-04-16T23:42:06.629Z,12.18
2023-04-16T23:44:33.598Z,12.17
2023-04-16T23:47:01.007Z,12.17
2023-04-16T23:49:28.118Z,12.16
2023-04-16T23:51:55.343Z,12.17
2023-04-16T23:54:22.285Z,12.17
2023-04-16T23:56:49.372Z,12.17
2023-04-16T23:59:16.933Z,12.17
